createdAt,value
2018-09-05T00:01:22.463Z,46.95
2018-09-05T00:03:48.486Z,47.38
2018-09-05T00:06:14.502Z,47.56
2018-09-05T00:08:40.524Z,47.48
2018-09-05T00:11:06.512Z,47.43
2018-09-05T00:13:32.531Z,47.88
2018-09-05T00:15:58.525Z,48.49
2018-09-05T00:18:24.533Z,48.73
2018-09-05T00:20:50.515Z,48.57
2018-09-05T00:23:16.518Z,47.82
2018-09-05T00:25:42.515Z,48.46
2018-09-05T00:28:08.510Z,47.92
2018-09-05T00:30:34.511Z,47.80
2018-09-05T00:33:00.560Z,47.93
2018-09-05T00:35:26.529Z,47.43
2018-09-05T00:37:52.542Z,47.01
2018-09-05T00:40:18.548Z,47.10
2018-09-05T00:42:44.541Z,47.96
2018-09-05T00:45:10.540Z,48.08
2018-09-05T00:47:36.533Z,49.04
2018-09-05T00:50:02.514Z,48.77
2018-09-05T00:52:28.498Z,47.73
2018-09-05T00:54:54.490Z,49.01
2018-09-05T00:57:20.502Z,49.33
2018-09-05T00:59:47.205Z,48.72
2018-09-05T01:02:13.221Z,48.11
2018-09-05T01:04:39.221Z,47.60
2018-09-05T01:07:05.200Z,48.22
2018-09-05T01:09:31.224Z,49.12
2018-09-05T01:11:57.218Z,49.67
2018-09-05T01:14:23.207Z,48.65
2018-09-05T01:17:19.264Z,48.36
2018-09-05T01:19:45.256Z,47.78
2018-09-05T01:22:11.247Z,47.81
2018-09-05T01:24:37.246Z,47.36
2018-09-05T01:27:03.241Z,48.07
2018-09-05T01:29:29.259Z,48.21
2018-09-05T01:31:55.240Z,47.53
2018-09-05T01:34:21.236Z,47.83
2018-09-05T01:36:47.211Z,47.83
2018-09-05T01:39:13.222Z,48.50
2018-09-05T01:41:39.231Z,48.25
2018-09-05T01:44:05.254Z,47.74
2018-09-05T01:46:31.288Z,48.23
2018-09-05T01:48:57.402Z,48.31
2018-09-05T01:51:23.415Z,47.92
2018-09-05T01:53:49.409Z,47.43
2018-09-05T01:56:15.400Z,47.62
2018-09-05T01:58:41.413Z,48.44
2018-09-05T02:01:07.434Z,48.16
2018-09-05T02:03:33.428Z,47.51
2018-09-05T02:05:59.443Z,48.43
2018-09-05T02:08:25.454Z,48.10
2018-09-05T02:10:51.403Z,48.14
2018-09-05T02:13:17.363Z,47.40
2018-09-05T02:15:43.291Z,47.70
2018-09-05T02:18:09.226Z,47.95
2018-09-05T02:20:35.176Z,48.04
2018-09-05T02:23:01.099Z,47.46
2018-09-05T02:25:27.061Z,48.48
2018-09-05T02:27:52.994Z,48.19
2018-09-05T02:30:18.948Z,48.43
2018-09-05T02:32:44.880Z,48.55
2018-09-05T02:35:11.431Z,48.01
2018-09-05T02:37:37.389Z,47.74
2018-09-05T02:40:03.351Z,48.58
2018-09-05T02:42:29.290Z,47.84
2018-09-05T02:44:55.241Z,48.09
2018-09-05T02:47:21.180Z,48.99
2018-09-05T02:49:47.133Z,47.63
2018-09-05T02:52:13.103Z,48.38
2018-09-05T02:54:39.047Z,48.13
2018-09-05T02:57:04.993Z,48.72
2018-09-05T02:59:30.942Z,48.50
2018-09-05T03:01:56.879Z,48.85
2018-09-05T03:04:22.835Z,48.20
2018-09-05T03:06:48.789Z,48.32
2018-09-05T03:09:14.811Z,49.06
2018-09-05T03:11:40.680Z,48.55
2018-09-05T03:14:06.638Z,49.16
2018-09-05T03:16:32.596Z,49.01
2018-09-05T03:18:58.626Z,47.83
2018-09-05T03:21:24.575Z,48.66
2018-09-05T03:23:50.543Z,48.32
2018-09-05T03:26:16.523Z,48.71
2018-09-05T03:28:42.536Z,48.77
2018-09-05T03:31:08.512Z,48.44
2018-09-05T03:33:34.482Z,48.28
2018-09-05T03:36:00.484Z,48.20
2018-09-05T03:38:26.541Z,47.95
2018-09-05T03:40:52.673Z,48.04
2018-09-05T03:43:18.605Z,48.79
2018-09-05T03:45:44.569Z,48.21
2018-09-05T03:48:11.560Z,48.47
2018-09-05T03:50:37.521Z,48.30
2018-09-05T03:53:03.516Z,48.85
2018-09-05T03:55:29.491Z,48.50
2018-09-05T03:57:55.449Z,49.64
2018-09-05T04:00:21.409Z,48.87
2018-09-05T04:02:47.361Z,50.53
2018-09-05T04:05:13.366Z,50.55
2018-09-05T04:07:39.274Z,49.65
2018-09-05T04:10:05.225Z,49.38
2018-09-05T04:12:31.184Z,48.25
2018-09-05T04:14:57.127Z,48.94
2018-09-05T04:17:23.090Z,48.45
2018-09-05T04:19:49.049Z,48.10
2018-09-05T04:22:15.028Z,49.08
2018-09-05T04:24:40.988Z,48.61
2018-09-05T04:27:06.934Z,49.71
2018-09-05T04:29:32.915Z,49.95
2018-09-05T04:31:58.899Z,49.76
2018-09-05T04:34:24.852Z,49.93
2018-09-05T04:36:50.816Z,49.54
2018-09-05T04:39:16.788Z,49.44
2018-09-05T04:41:42.765Z,49.08
2018-09-05T04:44:08.715Z,48.86
2018-09-05T04:46:34.706Z,49.53
2018-09-05T04:49:00.633Z,48.78
2018-09-05T04:51:26.605Z,49.76
2018-09-05T04:53:52.546Z,50.15
2018-09-05T04:56:18.481Z,49.83
2018-09-05T04:58:44.451Z,49.71
2018-09-05T05:01:10.425Z,49.37
2018-09-05T05:03:36.370Z,49.70
2018-09-05T05:06:02.681Z,49.24
2018-09-05T05:08:28.244Z,50.10
2018-09-05T05:10:54.199Z,48.81
2018-09-05T05:13:20.141Z,48.81
2018-09-05T05:15:46.095Z,49.60
2018-09-05T05:18:12.029Z,48.66
2018-09-05T05:20:37.961Z,48.26
2018-09-05T05:23:03.903Z,48.21
2018-09-05T05:25:29.884Z,48.50
2018-09-05T05:27:55.821Z,48.73
2018-09-05T05:30:21.757Z,48.22
2018-09-05T05:32:47.785Z,47.71
2018-09-05T05:35:13.713Z,48.54
2018-09-05T05:37:39.675Z,48.23
2018-09-05T05:40:05.631Z,48.72
2018-09-05T05:45:04.077Z,50.44
2018-09-05T05:47:30.045Z,50.64
2018-09-05T05:49:55.983Z,50.04
2018-09-05T05:52:21.937Z,49.73
2018-09-05T05:54:47.916Z,48.65
2018-09-05T05:57:13.892Z,47.93
2018-09-05T05:59:39.845Z,48.61
2018-09-05T06:02:05.802Z,48.67
2018-09-05T06:04:31.752Z,47.99
2018-09-05T06:06:57.688Z,48.79
2018-09-05T06:09:23.651Z,48.86
2018-09-05T06:11:49.590Z,47.97
2018-09-05T06:14:15.533Z,49.62
2018-09-05T06:16:41.499Z,49.82
2018-09-05T06:19:07.454Z,49.26
2018-09-05T06:21:33.413Z,48.54
2018-09-05T06:23:59.489Z,48.23
2018-09-05T06:26:25.432Z,48.77
2018-09-05T06:28:51.395Z,47.06
2018-09-05T06:31:17.594Z,47.95
2018-09-05T06:33:43.349Z,46.87
2018-09-05T06:36:09.278Z,46.53
2018-09-05T06:38:35.234Z,47.09
2018-09-05T06:41:01.161Z,47.69
2018-09-05T06:43:27.112Z,46.32
2018-09-05T06:45:53.067Z,45.62
2018-09-05T06:48:19.008Z,45.04
2018-09-05T06:50:44.954Z,45.52
2018-09-05T06:53:10.885Z,45.59
2018-09-05T06:55:36.821Z,44.25
2018-09-05T06:58:02.775Z,44.57
2018-09-05T07:00:28.718Z,44.33
2018-09-05T07:02:54.696Z,44.12
2018-09-05T07:05:20.664Z,43.59
2018-09-05T07:07:46.628Z,43.68
2018-09-05T07:10:12.574Z,42.95
2018-09-05T07:12:38.513Z,44.15
2018-09-05T07:15:04.495Z,43.35
2018-09-05T07:17:30.469Z,44.01
2018-09-05T07:19:56.448Z,44.21
2018-09-05T07:22:22.382Z,43.59
2018-09-05T07:24:48.385Z,43.26
2018-09-05T07:27:14.316Z,43.89
2018-09-05T07:29:40.304Z,43.74
2018-09-05T07:32:06.260Z,43.95
2018-09-05T07:34:32.231Z,44.03
2018-09-05T07:36:58.181Z,44.38
2018-09-05T07:39:24.139Z,44.24
2018-09-05T07:41:50.089Z,44.12
2018-09-05T07:44:16.050Z,44.37
2018-09-05T07:46:41.988Z,44.33
2018-09-05T07:49:07.945Z,43.42
2018-09-05T07:51:33.892Z,44.20
2018-09-05T07:53:59.851Z,43.59
2018-09-05T07:56:25.793Z,43.03
2018-09-05T07:58:51.760Z,42.11
2018-09-05T08:01:17.713Z,42.63
2018-09-05T08:03:43.687Z,42.00
2018-09-05T08:06:09.643Z,42.85
2018-09-05T08:08:35.593Z,42.81
2018-09-05T08:11:01.531Z,41.93
2018-09-05T08:13:27.481Z,42.36
2018-09-05T08:15:53.427Z,41.33
2018-09-05T08:18:19.384Z,41.22
2018-09-05T08:20:45.323Z,41.48
2018-09-05T08:23:11.289Z,41.61
2018-09-05T08:25:37.255Z,41.49
2018-09-05T08:28:03.200Z,41.53
2018-09-05T08:30:29.128Z,41.63
2018-09-05T08:32:55.058Z,41.58
2018-09-05T08:35:21.233Z,41.34
2018-09-05T08:37:47.028Z,42.55
2018-09-05T08:40:12.967Z,42.54
2018-09-05T08:42:38.912Z,42.77
2018-09-05T08:45:05.013Z,42.68
2018-09-05T08:47:30.876Z,42.83
2018-09-05T08:49:56.789Z,43.05
2018-09-05T08:52:22.746Z,42.09
2018-09-05T08:54:48.701Z,42.87
2018-09-05T08:57:14.633Z,42.51
2018-09-05T08:59:40.560Z,42.44
2018-09-05T09:02:06.493Z,42.07
2018-09-05T09:04:32.459Z,42.00
2018-09-05T09:06:58.400Z,41.61
2018-09-05T09:09:24.343Z,41.59
2018-09-05T09:11:50.281Z,42.20
2018-09-05T09:14:16.249Z,42.35
2018-09-05T09:16:42.192Z,41.60
2018-09-05T09:19:08.147Z,42.13
2018-09-05T09:21:34.122Z,41.55
2018-09-05T09:24:00.086Z,41.13
2018-09-05T09:26:26.026Z,41.50
2018-09-05T09:28:51.965Z,41.71
2018-09-05T09:31:17.899Z,41.49
2018-09-05T09:33:43.846Z,41.43
2018-09-05T09:36:09.816Z,41.42
2018-09-05T09:38:35.862Z,40.87
2018-09-05T09:41:01.822Z,41.90
2018-09-05T09:43:27.778Z,41.80
2018-09-05T09:45:53.770Z,41.03
2018-09-05T09:48:19.717Z,40.52
2018-09-05T09:50:45.678Z,41.37
2018-09-05T09:53:11.650Z,40.95
2018-09-05T09:55:37.648Z,40.73
2018-09-05T09:58:03.645Z,41.57
2018-09-05T10:00:29.618Z,40.56
2018-09-05T10:02:55.655Z,41.24
2018-09-05T10:05:21.622Z,40.31
2018-09-05T10:07:47.568Z,41.78
2018-09-05T10:10:13.709Z,41.18
2018-09-05T10:12:39.502Z,41.27
2018-09-05T10:15:05.463Z,41.42
2018-09-05T10:17:31.400Z,40.44
2018-09-05T10:19:57.342Z,40.15
2018-09-05T10:22:23.285Z,41.26
2018-09-05T10:24:49.308Z,40.50
2018-09-05T10:27:15.280Z,40.37
2018-09-05T10:29:41.289Z,39.48
2018-09-05T10:32:07.265Z,40.15
2018-09-05T10:34:33.223Z,40.79
2018-09-05T10:36:59.196Z,39.91
2018-09-05T10:39:25.150Z,40.03
2018-09-05T10:41:51.115Z,39.08
2018-09-05T10:44:17.142Z,40.38
2018-09-05T10:46:43.075Z,40.01
2018-09-05T10:49:09.015Z,40.36
2018-09-05T10:51:34.993Z,39.87
2018-09-05T10:54:01.082Z,42.02
2018-09-05T10:56:27.028Z,41.73
2018-09-05T10:58:52.991Z,42.32
2018-09-05T11:01:18.995Z,40.63
2018-09-05T11:03:44.956Z,41.58
2018-09-05T11:06:10.923Z,40.49
2018-09-05T11:08:36.913Z,40.80
2018-09-05T11:11:02.871Z,40.96
2018-09-05T11:13:28.987Z,41.71
2018-09-05T11:15:54.985Z,41.24
2018-09-05T11:18:20.949Z,40.86
2018-09-05T11:20:46.914Z,41.25
2018-09-05T11:23:12.870Z,40.70
2018-09-05T11:25:38.812Z,40.66
2018-09-05T11:28:04.751Z,41.07
2018-09-05T11:30:30.718Z,40.67
2018-09-05T11:32:56.681Z,40.33
2018-09-05T11:35:22.674Z,40.48
2018-09-05T11:37:48.612Z,39.46
2018-09-05T11:40:14.577Z,40.36
2018-09-05T11:42:40.543Z,38.05
2018-09-05T11:45:06.517Z,38.49
2018-09-05T11:47:32.564Z,39.13
2018-09-05T11:49:58.628Z,39.12
2018-09-05T11:52:24.598Z,38.57
2018-09-05T11:54:50.569Z,38.99
2018-09-05T11:57:16.527Z,38.20
2018-09-05T11:59:42.483Z,38.42
2018-09-05T12:02:08.495Z,38.89
2018-09-05T12:04:34.392Z,38.13
2018-09-05T12:07:00.352Z,38.98
2018-09-05T12:09:26.311Z,38.52
2018-09-05T12:11:52.276Z,38.07
2018-09-05T12:14:18.337Z,37.90
2018-09-05T12:16:44.316Z,38.84
2018-09-05T12:19:10.282Z,38.71
2018-09-05T12:21:36.224Z,38.51
2018-09-05T12:24:02.153Z,37.57
2018-09-05T12:26:28.129Z,38.69
2018-09-05T12:28:54.143Z,37.64
2018-09-05T12:31:20.099Z,37.73
2018-09-05T12:33:46.062Z,37.22
2018-09-05T12:36:12.017Z,37.43
2018-09-05T12:38:37.987Z,35.56
2018-09-05T12:41:03.925Z,37.59
2018-09-05T12:43:30.005Z,37.07
2018-09-05T12:45:55.940Z,36.48
2018-09-05T12:48:21.907Z,36.58
2018-09-05T12:50:47.864Z,36.26
2018-09-05T12:53:13.850Z,36.97
2018-09-05T12:55:39.812Z,37.23
2018-09-05T12:58:05.800Z,37.35
2018-09-05T13:00:31.745Z,36.12
2018-09-05T13:02:57.713Z,37.55
2018-09-05T13:05:23.704Z,37.86
2018-09-05T13:07:49.628Z,36.61
2018-09-05T13:10:15.560Z,36.52
2018-09-05T13:12:41.513Z,37.12
2018-09-05T13:15:07.477Z,37.03
2018-09-05T13:17:33.507Z,36.31
2018-09-05T13:19:59.478Z,37.18
2018-09-05T13:22:25.434Z,37.24
2018-09-05T13:24:51.366Z,36.76
2018-09-05T13:27:17.321Z,36.12
2018-09-05T13:29:43.247Z,37.56
2018-09-05T13:32:10.008Z,36.81
2018-09-05T13:34:35.963Z,36.88
2018-09-05T13:37:02.029Z,36.18
2018-09-05T13:39:28.014Z,37.32
2018-09-05T13:41:54.008Z,36.51
2018-09-05T13:44:19.962Z,37.09
2018-09-05T13:46:45.908Z,35.96
2018-09-05T13:49:11.849Z,37.03
2018-09-05T13:51:37.812Z,37.30
2018-09-05T13:54:03.779Z,36.71
2018-09-05T13:56:29.834Z,36.02
2018-09-05T13:58:55.778Z,36.58
2018-09-05T14:01:21.820Z,36.79
2018-09-05T14:03:47.788Z,35.99
2018-09-05T14:06:13.743Z,37.56
2018-09-05T14:08:39.714Z,37.00
2018-09-05T14:11:05.656Z,37.05
2018-09-05T14:13:31.636Z,37.21
2018-09-05T14:15:57.620Z,36.44
2018-09-05T14:18:23.589Z,35.95
2018-09-05T14:20:49.553Z,35.41
2018-09-05T14:23:15.523Z,36.44
2018-09-05T14:25:41.488Z,36.79
2018-09-05T14:28:07.441Z,36.40
2018-09-05T14:30:33.373Z,35.68
2018-09-05T14:32:59.295Z,36.01
2018-09-05T14:35:25.251Z,37.05
2018-09-05T14:37:51.194Z,35.38
2018-09-05T14:40:17.158Z,35.13
2018-09-05T14:42:43.140Z,36.00
2018-09-05T14:45:09.140Z,36.07
2018-09-05T14:47:35.125Z,36.70
2018-09-05T14:50:01.090Z,36.64
2018-09-05T14:52:27.049Z,36.62
2018-09-05T14:54:52.997Z,36.00
2018-09-05T14:57:18.938Z,36.44
2018-09-05T14:59:44.916Z,35.94
2018-09-05T15:02:10.887Z,36.50
2018-09-05T15:04:36.825Z,36.41
2018-09-05T15:07:02.757Z,35.77
2018-09-05T15:09:28.685Z,36.54
2018-09-05T15:11:54.633Z,36.94
2018-09-05T15:14:20.560Z,36.85
2018-09-05T15:16:46.511Z,36.03
2018-09-05T15:19:12.487Z,35.81
2018-09-05T15:21:38.457Z,36.07
2018-09-05T15:24:04.439Z,33.68
2018-09-05T15:26:30.376Z,35.25
2018-09-05T15:28:56.338Z,35.53
2018-09-05T15:31:22.325Z,36.15
2018-09-05T15:33:48.301Z,34.59
2018-09-05T15:36:14.253Z,35.28
2018-09-05T15:38:40.198Z,33.53
2018-09-05T15:41:06.170Z,32.95
2018-09-05T15:43:32.106Z,34.04
2018-09-05T15:45:58.071Z,34.01
2018-09-05T15:48:24.003Z,34.51
2018-09-05T15:50:49.979Z,35.65
2018-09-05T15:53:15.934Z,35.38
2018-09-05T15:55:41.914Z,35.57
2018-09-05T15:58:07.865Z,35.07
2018-09-05T16:00:33.811Z,35.07
2018-09-05T16:02:59.762Z,35.19
2018-09-05T16:05:25.731Z,34.77
2018-09-05T16:07:51.669Z,35.64
2018-09-05T16:10:17.663Z,35.89
2018-09-05T16:12:43.632Z,34.83
2018-09-05T16:15:09.663Z,35.19
2018-09-05T16:17:35.621Z,34.93
2018-09-05T16:20:01.607Z,33.03
2018-09-05T16:22:27.539Z,35.60
2018-09-05T16:24:53.519Z,35.80
2018-09-05T16:27:19.480Z,35.65
2018-09-05T16:29:45.519Z,33.91
2018-09-05T16:32:11.452Z,33.89
2018-09-05T16:34:37.381Z,34.93
2018-09-05T16:37:03.327Z,35.85
2018-09-05T16:39:29.298Z,35.11
2018-09-05T16:41:55.241Z,35.37
2018-09-05T16:44:21.214Z,35.87
2018-09-05T16:46:47.183Z,34.04
2018-09-05T16:49:13.135Z,35.46
2018-09-05T16:51:39.087Z,34.51
2018-09-05T16:54:05.045Z,33.88
2018-09-05T16:56:31.011Z,34.97
2018-09-05T16:58:56.990Z,34.59
2018-09-05T17:01:22.964Z,35.98
2018-09-05T17:03:48.941Z,35.61
2018-09-05T17:06:14.915Z,33.77
2018-09-05T17:08:40.893Z,35.39
2018-09-05T17:11:06.889Z,35.94
2018-09-05T17:13:32.813Z,34.86
2018-09-05T17:15:58.796Z,36.20
2018-09-05T17:18:24.759Z,36.02
2018-09-05T17:20:50.755Z,34.77
2018-09-05T17:23:16.747Z,35.91
2018-09-05T17:25:42.735Z,35.39
2018-09-05T17:28:08.793Z,35.69
2018-09-05T17:30:34.802Z,35.46
2018-09-05T17:33:00.764Z,35.34
2018-09-05T17:35:26.746Z,34.92
2018-09-05T17:37:52.781Z,34.90
2018-09-05T17:40:18.735Z,36.05
2018-09-05T17:42:44.688Z,35.61
2018-09-05T17:45:10.644Z,35.40
2018-09-05T17:47:36.598Z,36.40
2018-09-05T17:50:02.562Z,36.95
2018-09-05T17:52:28.582Z,36.37
2018-09-05T17:54:54.746Z,35.85
2018-09-05T17:57:20.867Z,36.45
2018-09-05T17:59:47.182Z,35.85
2018-09-05T18:02:13.150Z,36.58
2018-09-05T18:04:39.129Z,36.59
2018-09-05T18:07:05.093Z,36.10
2018-09-05T18:09:31.077Z,36.96
2018-09-05T18:11:57.063Z,37.38
2018-09-05T18:14:23.012Z,36.66
2018-09-05T18:16:48.988Z,37.91
2018-09-05T18:19:15.101Z,37.90
2018-09-05T18:21:41.056Z,37.85
2018-09-05T18:24:07.031Z,37.98
2018-09-05T18:26:33.009Z,37.91
2018-09-05T18:28:58.972Z,38.08
2018-09-05T18:31:24.957Z,38.49
2018-09-05T18:33:51.039Z,37.83
2018-09-05T18:36:17.149Z,38.11
2018-09-05T18:38:43.181Z,38.56
2018-09-05T18:41:09.229Z,38.80
2018-09-05T18:43:35.273Z,38.72
2018-09-05T18:46:01.216Z,38.00
2018-09-05T18:48:27.220Z,39.56
2018-09-05T18:50:53.304Z,39.37
2018-09-05T18:53:19.405Z,38.72
2018-09-05T18:55:45.411Z,39.39
2018-09-05T18:58:11.448Z,38.67
2018-09-05T19:00:37.478Z,39.65
2018-09-05T19:03:03.543Z,39.15
2018-09-05T19:05:29.539Z,39.53
2018-09-05T19:07:55.512Z,39.86
2018-09-05T19:10:21.477Z,39.35
2018-09-05T19:12:47.519Z,40.28
2018-09-05T19:15:13.518Z,39.99
2018-09-05T19:17:39.515Z,39.94
2018-09-05T19:20:05.480Z,39.44
2018-09-05T19:22:31.579Z,39.68
2018-09-05T19:24:57.509Z,39.16
2018-09-05T19:27:23.525Z,40.14
2018-09-05T19:29:49.554Z,40.25
2018-09-05T19:32:15.539Z,40.01
2018-09-05T19:34:41.498Z,39.91
2018-09-05T19:37:07.515Z,40.63
2018-09-05T19:39:33.531Z,39.75
2018-09-05T19:41:59.528Z,39.40
2018-09-05T19:44:25.526Z,40.05
2018-09-05T19:46:51.550Z,39.92
2018-09-05T19:49:17.593Z,40.32
2018-09-05T19:51:43.527Z,39.87
2018-09-05T19:54:09.523Z,40.38
2018-09-05T19:56:35.521Z,40.12
2018-09-05T19:59:01.481Z,40.12
2018-09-05T20:01:27.456Z,41.19
2018-09-05T20:03:53.399Z,40.88
2018-09-05T20:06:19.339Z,40.71
2018-09-05T20:08:45.346Z,40.41
2018-09-05T20:11:11.324Z,40.82
2018-09-05T20:13:37.309Z,41.55
2018-09-05T20:16:03.264Z,41.22
2018-09-05T20:18:29.220Z,41.56
2018-09-05T20:20:55.169Z,41.21
2018-09-05T20:23:21.163Z,40.40
2018-09-05T20:25:47.149Z,40.54
2018-09-05T20:28:13.132Z,40.57
2018-09-05T20:30:39.121Z,41.32
2018-09-05T20:33:05.174Z,40.51
2018-09-05T20:35:31.080Z,40.98
2018-09-05T20:37:57.050Z,41.24
2018-09-05T20:40:23.084Z,41.92
2018-09-05T20:42:49.031Z,41.44
2018-09-05T20:45:14.997Z,41.65
2018-09-05T20:47:40.963Z,41.85
2018-09-05T20:50:06.899Z,41.64
2018-09-05T20:52:32.846Z,41.60
2018-09-05T20:54:58.785Z,42.40
2018-09-05T20:57:24.740Z,42.20
2018-09-05T20:59:50.693Z,41.64
2018-09-05T21:02:16.645Z,42.25
2018-09-05T21:04:42.614Z,43.52
2018-09-05T21:07:08.560Z,42.28
2018-09-05T21:09:34.502Z,42.39
2018-09-05T21:12:00.500Z,41.95
2018-09-05T21:14:26.494Z,42.32
2018-09-05T21:16:52.444Z,41.76
2018-09-05T21:19:18.386Z,42.34
2018-09-05T21:21:44.312Z,41.97
2018-09-05T21:24:10.246Z,42.43
2018-09-05T21:26:36.254Z,42.17
2018-09-05T21:29:02.191Z,42.46
2018-09-05T21:31:28.149Z,42.94
2018-09-05T21:33:54.105Z,42.25
2018-09-05T21:36:20.072Z,41.77
2018-09-05T21:38:46.031Z,42.98
2018-09-05T21:41:11.991Z,43.16
2018-09-05T21:43:37.929Z,43.30
2018-09-05T21:46:03.891Z,42.75
2018-09-05T21:48:29.841Z,42.93
2018-09-05T21:50:55.821Z,43.66
2018-09-05T21:53:21.809Z,44.20
2018-09-05T21:55:47.825Z,43.92
2018-09-05T21:58:13.787Z,43.62
2018-09-05T22:00:39.759Z,43.04
2018-09-05T22:03:05.712Z,43.43
2018-09-05T22:05:31.674Z,43.98
2018-09-05T22:07:57.612Z,44.30
2018-09-05T22:10:25.035Z,43.91
2018-09-05T22:12:51.143Z,43.51
2018-09-05T22:15:17.096Z,44.37
2018-09-05T22:17:43.057Z,44.33
2018-09-05T22:20:09.048Z,45.01
2018-09-05T22:22:34.983Z,44.89
2018-09-05T22:25:00.972Z,45.09
2018-09-05T22:27:26.929Z,44.84
2018-09-05T22:29:52.881Z,43.90
2018-09-05T22:32:18.944Z,44.14
2018-09-05T22:34:44.891Z,45.30
2018-09-05T22:37:10.823Z,45.25
2018-09-05T22:39:36.776Z,45.12
2018-09-05T22:42:02.731Z,44.89
2018-09-05T22:46:54.515Z,44.74
2018-09-05T22:49:20.457Z,44.66
2018-09-05T22:51:46.417Z,45.57
2018-09-05T22:54:12.416Z,45.82
2018-09-05T22:56:38.369Z,45.14
2018-09-05T22:59:04.321Z,44.26
2018-09-05T23:01:30.282Z,44.06
2018-09-05T23:03:56.228Z,44.11
2018-09-05T23:06:22.204Z,44.63
2018-09-05T23:08:48.156Z,44.45
2018-09-05T23:11:14.125Z,44.83
2018-09-05T23:13:40.088Z,44.53
2018-09-05T23:16:06.021Z,43.96
2018-09-05T23:18:32.121Z,44.57
2018-09-05T23:20:58.180Z,43.79
2018-09-05T23:23:24.143Z,44.52
2018-09-05T23:25:50.097Z,44.84
2018-09-05T23:28:16.066Z,44.67
2018-09-05T23:30:42.041Z,44.99
2018-09-05T23:33:07.980Z,45.49
2018-09-05T23:35:33.933Z,44.86
2018-09-05T23:37:59.877Z,44.80
2018-09-05T23:40:25.841Z,45.72
2018-09-05T23:42:51.808Z,45.91
2018-09-05T23:45:17.763Z,44.60
2018-09-05T23:47:43.732Z,44.74
2018-09-05T23:50:09.660Z,44.08
2018-09-05T23:52:35.605Z,45.17
2018-09-05T23:55:01.545Z,45.08
2018-09-05T23:57:27.500Z,45.14
2018-09-05T23:59:53.465Z,44.26
